createdAt,value
2017-12-06T00:02:12.409Z,97.40
2017-12-06T00:05:14.477Z,97.60
2017-12-06T00:08:15.841Z,97.60
2017-12-06T00:11:17.217Z,97.50
2017-12-06T00:14:24.593Z,97.20
2017-12-06T00:17:26.008Z,97.20
2017-12-06T00:20:27.421Z,96.70
2017-12-06T00:23:28.781Z,97.40
2017-12-06T00:26:30.165Z,96.70
2017-12-06T00:29:31.575Z,97.00
2017-12-06T00:32:32.940Z,96.50
2017-12-06T00:35:34.313Z,96.60
2017-12-06T00:38:36.406Z,96.50
2017-12-06T00:41:38.509Z,96.80
2017-12-06T00:44:39.865Z,96.70
2017-12-06T00:47:41.222Z,96.70
2017-12-06T00:50:42.576Z,96.40
2017-12-06T00:53:43.921Z,96.60
2017-12-06T00:56:45.296Z,96.50
2017-12-06T00:59:46.655Z,96.60
2017-12-06T01:02:48.003Z,96.50
2017-12-06T01:05:49.380Z,96.70
2017-12-06T01:08:51.437Z,96.50
2017-12-06T01:11:53.513Z,96.80
2017-12-06T01:14:55.641Z,97.10
2017-12-06T01:17:57.062Z,97.10
2017-12-06T01:20:58.417Z,97.10
2017-12-06T01:23:59.782Z,97.00
2017-12-06T01:27:01.140Z,97.10
2017-12-06T01:30:02.554Z,97.00
2017-12-06T01:33:10.781Z,97.20
2017-12-06T01:36:12.172Z,97.30
2017-12-06T01:39:13.514Z,97.30
2017-12-06T01:42:14.912Z,97.40
2017-12-06T01:45:16.983Z,97.70
2017-12-06T01:48:18.305Z,98.00
2017-12-06T01:51:19.636Z,97.80
2017-12-06T01:54:21.037Z,98.00
2017-12-06T01:57:22.388Z,97.60
2017-12-06T02:00:23.696Z,98.10
2017-12-06T02:03:25.004Z,97.90
2017-12-06T02:06:33.434Z,97.70
2017-12-06T02:09:34.760Z,97.70
2017-12-06T02:12:36.098Z,97.70
2017-12-06T02:15:38.186Z,97.70
2017-12-06T02:18:39.503Z,97.70
2017-12-06T02:21:41.600Z,97.70
2017-12-06T02:24:42.956Z,97.70
2017-12-06T02:27:44.311Z,97.60
2017-12-06T02:30:45.694Z,97.70
2017-12-06T02:33:46.992Z,97.80
2017-12-06T02:36:48.304Z,97.60
2017-12-06T02:40:08.263Z,97.80
2017-12-06T02:43:27.972Z,97.90
2017-12-06T02:46:29.293Z,97.90
2017-12-06T02:49:30.655Z,98.00
2017-12-06T02:52:31.994Z,98.00
2017-12-06T02:55:33.359Z,98.10
2017-12-06T02:58:34.699Z,98.00
2017-12-06T03:01:36.030Z,98.10
2017-12-06T03:04:37.378Z,98.00
2017-12-06T03:07:38.680Z,98.20
2017-12-06T03:10:40.012Z,98.00
2017-12-06T03:13:41.376Z,98.20
2017-12-06T03:16:42.676Z,98.20
2017-12-06T03:19:43.992Z,98.30
2017-12-06T03:22:45.276Z,98.30
2017-12-06T03:25:46.613Z,98.30
2017-12-06T03:28:47.926Z,98.60
2017-12-06T03:31:49.251Z,98.50
2017-12-06T03:34:50.567Z,98.50
2017-12-06T03:37:51.851Z,98.60
2017-12-06T03:40:53.170Z,98.60
2017-12-06T03:43:54.465Z,98.70
2017-12-06T03:46:55.795Z,98.70
2017-12-06T03:49:57.096Z,98.70
2017-12-06T03:52:59.132Z,98.90
2017-12-06T03:56:00.440Z,98.80
2017-12-06T03:59:01.758Z,98.70
2017-12-06T04:02:03.831Z,98.70
2017-12-06T04:05:05.865Z,98.70
2017-12-06T04:08:07.188Z,98.70
2017-12-06T04:11:08.513Z,98.80
2017-12-06T04:14:09.831Z,99.00
2017-12-06T04:17:11.184Z,98.90
2017-12-06T04:20:12.472Z,99.20
2017-12-06T04:23:13.745Z,99.20
2017-12-06T04:26:15.063Z,99.30
2017-12-06T04:29:16.388Z,98.90
2017-12-06T04:32:17.715Z,99.10
2017-12-06T04:35:19.050Z,99.10
2017-12-06T04:38:20.385Z,99.20
2017-12-06T04:41:21.719Z,99.20
2017-12-06T04:44:23.112Z,99.20
2017-12-06T04:47:24.451Z,99.20
2017-12-06T04:50:25.797Z,99.20
2017-12-06T04:53:27.105Z,99.40
2017-12-06T04:56:29.150Z,99.30
2017-12-06T04:59:30.463Z,99.30
2017-12-06T05:02:31.762Z,99.30
2017-12-06T05:05:33.837Z,99.20
2017-12-06T05:08:35.850Z,99.50
2017-12-06T05:11:37.171Z,99.40
2017-12-06T05:14:38.496Z,99.40
2017-12-06T05:17:40.532Z,99.50
2017-12-06T05:20:41.854Z,99.50
2017-12-06T05:23:43.128Z,99.70
2017-12-06T05:26:44.442Z,99.60
2017-12-06T05:29:45.792Z,99.90
2017-12-06T05:32:47.110Z,99.90
2017-12-06T05:35:49.238Z,99.70
2017-12-06T05:38:51.328Z,99.90
2017-12-06T05:41:52.615Z,99.90
2017-12-06T05:44:53.916Z,99.90
2017-12-06T05:47:55.189Z,99.90
2017-12-06T05:50:56.481Z,99.90
2017-12-06T05:53:57.788Z,99.90
2017-12-06T05:56:59.086Z,99.90
2017-12-06T06:00:00.406Z,99.90
2017-12-06T06:03:02.470Z,99.90
2017-12-06T06:06:04.523Z,99.90
2017-12-06T06:09:05.831Z,99.90
2017-12-06T06:12:07.105Z,99.90
2017-12-06T06:15:08.449Z,99.90
2017-12-06T06:18:09.721Z,99.90
2017-12-06T06:21:11.052Z,99.90
2017-12-06T06:24:12.390Z,99.90
2017-12-06T06:27:13.685Z,99.90
2017-12-06T06:30:15.764Z,99.90
2017-12-06T06:33:17.052Z,99.90
2017-12-06T06:36:18.372Z,99.90
2017-12-06T06:39:19.679Z,99.90
2017-12-06T06:42:20.978Z,99.90
2017-12-06T06:45:22.336Z,99.90
2017-12-06T06:48:23.647Z,99.90
2017-12-06T06:51:25.715Z,99.90
2017-12-06T06:54:27.820Z,99.90
2017-12-06T06:57:29.177Z,99.90
2017-12-06T07:00:30.541Z,99.90
2017-12-06T07:03:31.847Z,99.90
2017-12-06T07:06:33.873Z,99.90
2017-12-06T07:09:35.240Z,99.90
2017-12-06T07:12:36.536Z,99.90
2017-12-06T07:15:37.852Z,99.90
2017-12-06T07:18:39.920Z,99.90
2017-12-06T07:21:41.930Z,99.70
2017-12-06T07:24:43.324Z,99.70
2017-12-06T07:27:44.656Z,99.90
2017-12-06T07:30:46.033Z,99.80
2017-12-06T07:33:47.513Z,99.80
2017-12-06T07:36:48.891Z,99.90
2017-12-06T07:39:50.211Z,99.80
2017-12-06T07:42:52.326Z,99.70
2017-12-06T07:45:54.242Z,99.70
2017-12-06T07:48:55.544Z,99.80
2017-12-06T07:51:56.881Z,99.90
2017-12-06T07:54:58.185Z,99.70
2017-12-06T07:58:00.295Z,99.80
2017-12-06T08:01:01.595Z,99.80
2017-12-06T08:04:03.704Z,99.80
2017-12-06T08:07:05.001Z,99.70
2017-12-06T08:10:06.331Z,99.60
2017-12-06T08:13:07.653Z,99.60
2017-12-06T08:16:08.960Z,99.60
2017-12-06T08:19:11.025Z,99.30
2017-12-06T08:22:13.083Z,99.10
2017-12-06T08:25:14.380Z,99.10
2017-12-06T08:28:15.680Z,99.10
2017-12-06T08:31:17.007Z,99.20
2017-12-06T08:34:18.312Z,99.20
2017-12-06T08:37:19.637Z,99.10
2017-12-06T08:40:20.932Z,99.20
2017-12-06T08:43:22.284Z,99.10
2017-12-06T08:46:23.611Z,99.00
2017-12-06T08:49:24.992Z,98.60
2017-12-06T08:52:26.339Z,98.80
2017-12-06T08:55:27.656Z,98.50
2017-12-06T08:58:29.731Z,98.30
2017-12-06T09:01:31.788Z,98.50
2017-12-06T09:04:33.884Z,99.90
2017-12-06T09:07:35.201Z,99.90
2017-12-06T09:10:37.310Z,92.50
2017-12-06T09:13:38.648Z,92.50
2017-12-06T09:16:40.006Z,93.10
2017-12-06T09:19:41.300Z,94.70
2017-12-06T09:22:42.617Z,96.30
2017-12-06T09:25:43.988Z,97.20
2017-12-06T09:28:45.320Z,97.60
2017-12-06T09:31:46.665Z,97.80
2017-12-06T09:34:48.009Z,97.80
2017-12-06T09:37:49.341Z,98.00
2017-12-06T09:40:50.634Z,98.20
2017-12-06T09:43:51.998Z,98.20
2017-12-06T09:46:53.306Z,98.30
2017-12-06T09:49:54.642Z,98.20
2017-12-06T09:52:55.912Z,98.10
2017-12-06T09:55:57.231Z,98.20
2017-12-06T09:58:58.560Z,98.40
2017-12-06T10:01:59.897Z,98.40
2017-12-06T10:05:01.215Z,98.10
2017-12-06T10:08:02.515Z,98.30
2017-12-06T10:11:03.854Z,98.30
2017-12-06T10:14:05.116Z,98.20
2017-12-06T10:17:07.178Z,98.40
2017-12-06T10:20:08.458Z,98.30
2017-12-06T10:23:09.822Z,98.20
2017-12-06T10:26:11.177Z,98.50
2017-12-06T10:29:12.532Z,98.30
2017-12-06T10:32:13.877Z,98.30
2017-12-06T10:35:15.204Z,98.20
2017-12-06T10:38:16.563Z,98.40
2017-12-06T10:41:17.884Z,98.50
2017-12-06T10:44:19.219Z,98.40
2017-12-06T10:47:20.621Z,98.50
2017-12-06T10:50:21.956Z,98.50
2017-12-06T10:53:24.026Z,98.30
2017-12-06T10:56:25.316Z,98.30
2017-12-06T10:59:26.632Z,98.30
2017-12-06T11:02:27.924Z,98.10
2017-12-06T11:05:29.251Z,98.20
2017-12-06T11:08:30.530Z,98.10
2017-12-06T11:11:31.854Z,98.00
2017-12-06T11:14:33.154Z,98.20
2017-12-06T11:17:35.237Z,97.90
2017-12-06T11:20:37.318Z,98.10
2017-12-06T11:23:38.586Z,98.10
2017-12-06T11:26:39.930Z,98.30
2017-12-06T11:29:41.230Z,98.40
2017-12-06T11:32:42.545Z,98.40
2017-12-06T11:35:43.878Z,98.10
2017-12-06T11:38:45.189Z,99.90
2017-12-06T11:41:47.208Z,94.30
2017-12-06T11:44:48.527Z,94.10
2017-12-06T11:47:49.835Z,83.60
2017-12-06T11:50:51.148Z,88.20
2017-12-06T11:53:52.514Z,93.40
2017-12-06T11:56:53.833Z,96.00
2017-12-06T11:59:55.143Z,97.10
2017-12-06T12:02:56.412Z,97.70
2017-12-06T12:05:58.488Z,98.30
2017-12-06T12:09:00.502Z,98.70
2017-12-06T12:12:02.904Z,98.70
2017-12-06T12:15:04.220Z,98.20
2017-12-06T12:18:05.631Z,98.20
2017-12-06T12:21:07.091Z,98.30
2017-12-06T12:24:09.770Z,98.50
2017-12-06T12:27:11.701Z,98.70
2017-12-06T12:30:12.995Z,98.40
2017-12-06T12:33:14.358Z,98.70
2017-12-06T12:36:16.808Z,98.80
2017-12-06T12:39:18.069Z,98.60
2017-12-06T12:42:19.719Z,98.40
2017-12-06T12:45:21.904Z,98.50
2017-12-06T12:48:23.305Z,98.50
2017-12-06T12:51:26.599Z,98.50
2017-12-06T12:54:28.835Z,98.50
2017-12-06T12:57:37.221Z,98.70
2017-12-06T13:00:39.306Z,98.70
2017-12-06T13:03:40.648Z,98.70
2017-12-06T13:06:42.006Z,98.80
2017-12-06T13:09:44.883Z,98.90
2017-12-06T13:12:46.252Z,99.10
2017-12-06T13:15:48.487Z,99.30
2017-12-06T13:18:50.575Z,99.50
2017-12-06T13:21:51.931Z,99.50
2017-12-06T13:24:53.237Z,99.00
2017-12-06T13:27:54.616Z,99.50
2017-12-06T13:30:56.658Z,99.40
2017-12-06T13:33:58.024Z,99.40
2017-12-06T13:37:00.108Z,99.50
2017-12-06T13:40:02.180Z,99.30
2017-12-06T13:43:03.496Z,99.30
2017-12-06T13:46:04.860Z,99.10
2017-12-06T13:49:06.938Z,99.10
2017-12-06T13:52:09.021Z,98.90
2017-12-06T13:55:10.362Z,98.90
2017-12-06T13:58:11.690Z,98.90
2017-12-06T14:01:13.024Z,99.00
2017-12-06T14:04:14.303Z,99.10
2017-12-06T14:07:16.388Z,99.10
2017-12-06T14:10:17.724Z,99.10
2017-12-06T14:13:19.795Z,98.80
2017-12-06T14:16:21.859Z,98.60
2017-12-06T14:19:23.944Z,98.90
2017-12-06T14:22:25.323Z,98.90
2017-12-06T14:25:26.642Z,98.70
2017-12-06T14:28:27.976Z,98.90
2017-12-06T14:31:30.043Z,99.10
2017-12-06T14:34:32.160Z,99.10
2017-12-06T14:37:33.540Z,99.10
2017-12-06T14:40:34.913Z,99.30
2017-12-06T14:43:37.032Z,99.10
2017-12-06T14:46:38.336Z,99.10
2017-12-06T14:49:40.460Z,99.20
2017-12-06T14:52:41.819Z,99.20
2017-12-06T14:55:43.158Z,99.50
2017-12-06T14:58:44.504Z,99.30
2017-12-06T15:01:45.847Z,99.90
2017-12-06T15:04:47.232Z,92.50
2017-12-06T15:07:48.564Z,88.20
2017-12-06T15:10:49.926Z,92.70
2017-12-06T15:13:51.302Z,95.70
2017-12-06T15:16:53.360Z,98.30
2017-12-06T15:19:54.940Z,98.30
2017-12-06T15:22:56.320Z,98.90
2017-12-06T15:25:57.640Z,99.30
2017-12-06T15:28:58.995Z,99.40
2017-12-06T15:32:00.354Z,99.80
2017-12-06T15:35:01.746Z,99.70
2017-12-06T15:38:03.111Z,99.90
2017-12-06T15:41:04.468Z,99.90
2017-12-06T15:44:05.850Z,99.90
2017-12-06T15:47:07.193Z,99.90
2017-12-06T15:50:09.315Z,99.90
2017-12-06T15:53:10.687Z,99.90
2017-12-06T15:56:12.020Z,99.90
2017-12-06T15:59:13.364Z,99.90
2017-12-06T16:02:14.744Z,99.90
2017-12-06T16:05:16.075Z,99.90
2017-12-06T16:08:17.453Z,99.90
2017-12-06T16:11:19.514Z,99.90
2017-12-06T16:14:20.864Z,99.90
2017-12-06T16:17:22.250Z,99.50
2017-12-06T16:20:23.582Z,99.80
2017-12-06T16:23:25.697Z,99.60
2017-12-06T16:26:27.031Z,99.60
2017-12-06T16:29:28.412Z,99.90
2017-12-06T16:32:29.788Z,99.80
2017-12-06T16:35:49.702Z,99.90
2017-12-06T16:38:51.087Z,99.90
2017-12-06T16:41:52.407Z,99.90
2017-12-06T16:44:53.747Z,99.90
2017-12-06T16:47:55.895Z,99.90
2017-12-06T16:50:57.205Z,99.90
2017-12-06T16:53:58.575Z,99.90
2017-12-06T16:56:59.908Z,99.90
2017-12-06T17:00:01.292Z,99.90
2017-12-06T17:03:02.628Z,99.90
2017-12-06T17:06:03.925Z,99.90
2017-12-06T17:09:05.312Z,99.90
2017-12-06T17:12:06.664Z,99.90
2017-12-06T17:15:08.035Z,99.90
2017-12-06T17:18:09.415Z,99.90
2017-12-06T17:21:11.524Z,99.90
2017-12-06T17:24:12.857Z,99.90
2017-12-06T17:27:14.176Z,99.90
2017-12-06T17:30:34.728Z,99.90
2017-12-06T17:33:36.090Z,99.90
2017-12-06T17:36:37.416Z,99.90
2017-12-06T17:39:38.783Z,99.90
2017-12-06T17:42:40.088Z,99.90
2017-12-06T17:45:42.188Z,99.90
2017-12-06T17:48:43.545Z,99.90
2017-12-06T17:51:44.878Z,99.90
2017-12-06T17:54:46.266Z,99.90
2017-12-06T17:57:47.623Z,99.90
2017-12-06T18:00:48.948Z,99.90
2017-12-06T18:03:50.325Z,99.90
2017-12-06T18:06:54.525Z,99.90
2017-12-06T18:09:55.831Z,99.90
2017-12-06T18:12:57.943Z,99.90
2017-12-06T18:15:59.247Z,99.90
2017-12-06T18:19:01.366Z,99.90
2017-12-06T18:22:02.719Z,99.90
2017-12-06T18:25:04.057Z,99.90
2017-12-06T18:28:05.423Z,99.90
2017-12-06T18:31:06.784Z,99.90
2017-12-06T18:34:08.116Z,99.90
2017-12-06T18:37:09.508Z,99.90
2017-12-06T18:40:10.835Z,99.90
2017-12-06T18:43:12.190Z,99.90
2017-12-06T18:46:13.587Z,99.90
2017-12-06T18:49:14.910Z,99.90
2017-12-06T18:52:16.995Z,99.90
2017-12-06T18:55:19.051Z,99.90
2017-12-06T18:58:21.124Z,99.90
2017-12-06T19:01:23.166Z,99.90
2017-12-06T19:04:24.573Z,99.90
2017-12-06T19:07:25.970Z,99.90
2017-12-06T19:10:27.357Z,99.90
2017-12-06T19:13:28.719Z,99.90
2017-12-06T19:16:30.069Z,99.90
2017-12-06T19:19:32.609Z,99.90
2017-12-06T19:22:35.722Z,99.90
2017-12-06T19:25:37.714Z,99.90
2017-12-06T19:28:40.440Z,99.90
2017-12-06T19:31:42.585Z,99.90
2017-12-06T19:34:44.811Z,99.90
2017-12-06T19:37:48.018Z,99.90
2017-12-06T19:40:50.888Z,99.90
2017-12-06T19:43:53.152Z,99.90
2017-12-06T19:46:56.787Z,99.90
2017-12-06T19:49:59.009Z,99.90
2017-12-06T19:53:00.348Z,99.90
2017-12-06T19:56:02.366Z,99.80
2017-12-06T19:59:03.712Z,99.90
2017-12-06T20:02:06.912Z,99.80
2017-12-06T20:05:09.076Z,99.80
2017-12-06T20:08:10.446Z,99.80
2017-12-06T20:11:12.599Z,99.70
2017-12-06T20:14:16.053Z,99.90
2017-12-06T20:17:18.272Z,99.90
2017-12-06T20:20:19.663Z,99.90
2017-12-06T20:23:20.955Z,99.90
2017-12-06T20:26:24.092Z,99.90
2017-12-06T20:29:27.848Z,99.90
2017-12-06T20:32:29.495Z,99.90
2017-12-06T20:35:32.311Z,99.90
2017-12-06T20:38:35.284Z,99.90
2017-12-06T20:41:39.621Z,99.90
2017-12-06T20:44:41.676Z,99.90
2017-12-06T20:47:43.766Z,99.80
2017-12-06T20:50:45.720Z,99.80
2017-12-06T20:53:47.378Z,99.90
2017-12-06T20:56:49.285Z,99.60
2017-12-06T20:59:50.641Z,99.80
2017-12-06T21:02:52.619Z,99.80
2017-12-06T21:05:54.832Z,99.80
2017-12-06T21:08:58.132Z,99.80
2017-12-06T21:11:59.473Z,99.50
2017-12-06T21:15:01.576Z,99.20
2017-12-06T21:18:04.535Z,99.20
2017-12-06T21:21:06.704Z,98.90
2017-12-06T21:24:08.236Z,98.70
2017-12-06T21:27:09.824Z,98.80
2017-12-06T21:30:11.141Z,98.40
2017-12-06T21:33:13.265Z,97.70
2017-12-06T21:36:14.671Z,97.70
2017-12-06T21:39:16.684Z,97.80
2017-12-06T21:42:18.035Z,97.80
2017-12-06T21:45:19.402Z,97.70
2017-12-06T21:48:20.704Z,97.70
2017-12-06T21:51:22.760Z,97.00
2017-12-06T21:54:24.781Z,97.10
2017-12-06T21:57:26.133Z,97.10
2017-12-06T22:00:27.586Z,97.00
2017-12-06T22:03:28.943Z,97.10
2017-12-06T22:06:30.255Z,96.90
2017-12-06T22:09:31.563Z,96.90
2017-12-06T22:12:32.869Z,96.50
2017-12-06T22:15:34.144Z,96.60
2017-12-06T22:18:35.475Z,96.70
2017-12-06T22:21:36.764Z,96.70
2017-12-06T22:24:38.100Z,96.60
2017-12-06T22:27:39.360Z,96.70
2017-12-06T22:30:40.711Z,96.70
2017-12-06T22:33:42.044Z,96.40
2017-12-06T22:36:43.379Z,96.30
2017-12-06T22:39:44.736Z,96.20
2017-12-06T22:42:46.041Z,95.80
2017-12-06T22:45:47.397Z,96.20
2017-12-06T22:48:48.735Z,95.80
2017-12-06T22:51:50.819Z,96.00
2017-12-06T22:54:52.136Z,96.00
2017-12-06T22:57:53.475Z,95.70
2017-12-06T23:00:54.975Z,95.90
2017-12-06T23:03:56.284Z,95.50
2017-12-06T23:06:57.655Z,95.30
2017-12-06T23:09:59.759Z,95.40
2017-12-06T23:13:01.196Z,95.30
2017-12-06T23:16:02.516Z,95.20
2017-12-06T23:19:03.871Z,95.50
2017-12-06T23:22:05.999Z,94.90
2017-12-06T23:25:07.454Z,94.90
2017-12-06T23:28:08.819Z,94.70
2017-12-06T23:31:10.171Z,94.60
2017-12-06T23:34:11.660Z,94.50
2017-12-06T23:37:13.736Z,94.40
2017-12-06T23:40:15.084Z,94.30
2017-12-06T23:43:18.079Z,94.50
2017-12-06T23:46:19.411Z,94.50
2017-12-06T23:49:21.519Z,94.60
2017-12-06T23:52:22.846Z,94.60
2017-12-06T23:55:24.174Z,94.30
2017-12-06T23:58:26.199Z,94.60
